• Join FlightAware (Why Join?)
  • Login
  • US Flag 
10:01AM EDT


 

Airport Tracker/Info


-or-


 

Live Flight TrackerFlight Track Log ✈ AFL1183 ✈ 02-Feb-2014 ✈ URWW / VOG - UUEE / SVO

Flight Track Log - Related Links

Times and Time Zones

All times are in EST time to prevent confusion due to time zone crossing. See the AFL1183 flight status page for this flight to view local times or setup timezone preferences in your user account.

Time Position Orientation Groundspeed Altitude Reporting Facility
EST Latitude Longitude Course Direction KTS MPH feet Rate Location/Type
09:48AM 50.2368 42.5926 334° Northwest  Level Estimated
09:49AM 50.3350 42.5162 334° Northwest  Level Estimated
09:50AM 50.4331 42.4395 334° Northwest  Level Estimated
09:51AM 50.5312 42.3625 333° Northwest  Level Estimated
09:52AM 50.6292 42.2851 333° Northwest  Level Estimated
09:53AM 50.7271 42.2075 333° Northwest  Level Estimated
09:54AM 50.8250 42.1295 333° Northwest  Level Estimated
09:55AM 50.9229 42.0511 333° Northwest  Level Estimated
09:56AM 51.0207 41.9725 333° Northwest  Level Estimated
09:57AM 51.1184 41.8935 333° Northwest  Level Estimated
09:58AM 51.2148 41.8153 333° Northwest  Level Estimated
09:59AM 51.3111 41.7367 333° Northwest  Level Estimated
10:00AM 51.4074 41.6578 333° Northwest  Level Estimated
10:01AM 51.5036 41.5785 333° Northwest  Level Estimated
10:02AM 51.5998 41.4990 333° Northwest  Level Estimated
10:03AM 51.6959 41.4190 333° Northwest  Level Estimated
10:04AM 51.7920 41.3388 333° Northwest  Level Estimated
10:05AM 51.8880 41.2582 333° Northwest  Level Estimated
10:06AM 51.9839 41.1772 333° Northwest  Level Estimated
10:07AM 52.0798 41.0960 332° Northwest  Level Estimated
10:08AM 52.1756 41.0143 332° Northwest  Level Estimated
10:09AM 52.2714 40.9323 332° Northwest  Level Estimated
10:10AM 52.3671 40.8500 332° Northwest  Level Estimated
10:11AM 52.4628 40.7673 332° Northwest  Level Estimated
10:12AM 52.5584 40.6842 332° Northwest  Level Estimated
10:13AM 52.6540 40.6008 332° Northwest  Level Estimated
10:14AM 52.7495 40.5170 332° Northwest  Level Estimated
10:15AM 52.8449 40.4328 332° Northwest  Level Estimated
10:16AM 52.9403 40.3483 332° Northwest  Level Estimated
10:17AM 53.0356 40.2634 332° Northwest  Level Estimated
10:18AM 53.1308 40.1781 332° Northwest  Level Estimated
10:19AM 53.2260 40.0925 332° Northwest  Level Estimated
10:20AM 53.3211 40.0064 332° Northwest  Level Estimated
10:21AM 53.4162 39.9200 332° Northwest  Level Estimated
10:22AM 53.5112 39.8332 331° Northwest  Level Estimated
10:23AM 53.6062 39.7460 331° Northwest  Level Estimated
10:24AM 53.7010 39.6584 331° Northwest  Level Estimated
10:25AM 53.7958 39.5704 331° Northwest  Level Estimated
10:26AM 53.8906 39.4820 331° Northwest  Level Estimated
10:27AM 53.9853 39.3932 331° Northwest  Level Estimated
10:28AM 54.0799 39.3041 331° Northwest  Level Estimated
10:29AM 54.1744 39.2145 331° Northwest  Level Estimated
10:30AM 54.2689 39.1245 331° Northwest  Level Estimated
10:31AM 54.3633 39.0340 331° Northwest  Level Estimated
10:32AM 54.4577 38.9432 331° Northwest  Level Estimated
10:33AM 54.5520 38.8519 331° Northwest  Level Estimated
10:34AM 54.6462 38.7603 331° Northwest  Level Estimated
10:35AM 54.7403 38.6681 331° Northwest  Level Estimated
10:36AM 54.8344 38.5756 330° Northwest  Level Estimated
10:37AM 54.9284 38.4826 330° Northwest  Level Estimated
10:38AM 55.0223 38.3892 330° Northwest  Level Estimated
10:39AM 55.1162 38.2954 330° Northwest  Level Estimated
10:40AM 55.2100 38.2011 330° Northwest  Level Estimated
10:41AM 55.3037 38.1064 330° Northwest  Level Estimated
10:42AM 55.3973 38.0112 330° Northwest  Level Estimated
10:43AM 55.4909 37.9156 330° Northwest  Level Estimated
10:44AM 55.5844 37.8195 330° Northwest  Level Estimated
10:45AM 55.6778 37.7229 330° Northwest  Level Estimated
10:46AM 55.7711 37.6259 330° Northwest  Level Estimated
10:47AM 55.8644 37.5284 330° Northwest  Level Estimated
10:48AM 55.9576 37.4305 330° Northwest  Level Estimated
10:49AM 55.9726 37.4146 329° Northwest  Level Estimated
10:50AM 55.9726 37.4146 344° North  Level Estimated
10:51AM 55.9726 37.4146 344° North  Level Estimated
10:52AM 55.9726 37.4146 344° North  Level Estimated
10:53AM 55.9726 37.4146 344° North  Level Estimated
10:54AM 55.9726 37.4146 344° North  Level Estimated
10:55AM 55.9726 37.4146 344° North  Level Estimated
10:56AM 55.9726 37.4146 344° North  Level Estimated
10:57AM 55.9726 37.4146 344° North  Level Estimated
10:58AM 55.9726 37.4146 344° North  Level Estimated
10:59AM 55.9726 37.4146 344° North  Level Estimated
11:00AM 55.9726 37.4146 344° North  Level Estimated
11:01AM 55.9726 37.4146 344° North  Level Estimated
11:02AM 55.9726 37.4146 344° North  Level Estimated
11:03AM 55.9726 37.4146 344° North  Level Estimated
11:04AM 55.9726 37.4146 344° North  Level Estimated
11:05AM 55.9726 37.4146 344° North  Level Estimated
11:06AM 55.9726 37.4146 344° North  Level Estimated
11:07AM 55.9726 37.4146 344° North  Level Estimated
11:08AM 55.9726 37.4146 344° North  Level Estimated